^^
Your Local Weather - Clay, NY Station Historical Data
Daily Summary for April 27, 2017 Units:  Metric    English   Both
« Previous Day
Next Day »
Daily Weekly Monthly Yearly Custom
  High: Low: Average:
Temperature: 27.6 °C 12.8 °C 20.6 °C
Dew Point: 16.8 °C 11.2 °C 13.8 °C
Humidity: 90% 42% 68%
Wind Speed: 14.5km/h 0km/h 6.3km/h
Wind Gust: 24.1km/h - -
Wind- - ESE
Pressure: 1007.3 hPa 1001.2 hPa -
Precipitation: 1.27 mm    
Historical Graphs
 
 
Tabular Data for April 27, 2017
Time Temperature Dew Point Pressure Wind Wind Speed Wind Gust Humidity Rainfall Rate (Hourly) solar
00:00 15.4 °C 12.4 °C 1005.6 hPa East 4.8 km/h 4.8 km/h 82% 0 mm 0 W/m2
00:06 15.4 °C 12.3 °C 1005.6 hPa ENE 3.2 km/h 4.8 km/h 82% 0 mm 0 W/m2
00:12 15.3 °C 12.3 °C 1005.6 hPa East 3.2 km/h 3.2 km/h 82% 0 mm 0 W/m2
00:18 15.3 °C 12.3 °C 1005.6 hPa ENE 3.2 km/h 8 km/h 82% 0 mm 0 W/m2
00:24 15.3 °C 12.4 °C 1005.6 hPa ENE 4.8 km/h 6.4 km/h 83% 0 mm 0 W/m2
00:30 15.2 °C 12.3 °C 1005.6 hPa ENE 3.2 km/h 4.8 km/h 83% 0 mm 0 W/m2
00:36 15 °C 12.3 °C 1005.6 hPa ENE 3.2 km/h 4.8 km/h 84% 0 mm 0 W/m2
00:42 15.1 °C 12.4 °C 1005.6 hPa ENE 4.8 km/h 4.8 km/h 84% 0 mm 0 W/m2
00:48 14.9 °C 12.3 °C 1005.6 hPa East 3.2 km/h 4.8 km/h 84% 0 mm 0 W/m2
00:54 15 °C 12.3 °C 1005.6 hPa East 3.2 km/h 6.4 km/h 84% 0 mm 0 W/m2
01:00 14.9 °C 12.3 °C 1005.6 hPa ENE 3.2 km/h 3.2 km/h 84% 0 mm 0 W/m2
01:06 14.8 °C 12.2 °C 1005.6 hPa East 1.6 km/h 4.8 km/h 84% 0 mm 0 W/m2
01:12 14.7 °C 12.1 °C 1005.6 hPa East 3.2 km/h 4.8 km/h 84% 0 mm 0 W/m2
01:18 14.7 °C 12.2 °C 1006 hPa East 3.2 km/h 4.8 km/h 85% 0 mm 0 W/m2
01:24 14.7 °C 12.2 °C 1006.3 hPa East 1.6 km/h 3.2 km/h 85% 0 mm 0 W/m2
01:30 14.5 °C 12 °C 1006.3 hPa East 1.6 km/h 1.6 km/h 85% 0 mm 0 W/m2
01:36 14.3 °C 11.8 °C 1006.3 hPa NNE 1.6 km/h 4.8 km/h 85% 0 mm 0 W/m2
01:42 14.2 °C 11.8 °C 1006 hPa ENE 1.6 km/h 1.6 km/h 86% 0 mm 0 W/m2
01:48 14.2 °C 11.9 °C 1006.3 hPa ENE 1.6 km/h 4.8 km/h 86% 0 mm 0 W/m2
01:54 14.1 °C 11.8 °C 1006.3 hPa ENE 3.2 km/h 6.4 km/h 86% 0 mm 0 W/m2
02:00 14 °C 11.7 °C 1006.3 hPa ENE 3.2 km/h 3.2 km/h 86% 0 mm 0 W/m2
02:06 13.8 °C 11.7 °C 1006.3 hPa ENE 3.2 km/h 3.2 km/h 87% 0 mm 0 W/m2
02:12 13.8 °C 11.7 °C 1006.3 hPa ENE 1.6 km/h 1.6 km/h 87% 0 mm 0 W/m2
02:18 13.8 °C 11.9 °C 1006.3 hPa ENE 1.6 km/h 3.2 km/h 88% 0 mm 0 W/m2
02:23 13.9 °C 11.8 °C 1006.3 hPa ENE 3.2 km/h 3.2 km/h 87% 0 mm 0 W/m2
02:30 13.9 °C 11.8 °C 1006.3 hPa East 3.2 km/h 3.2 km/h 87% 0 mm 0 W/m2
02:36 13.9 °C 11.8 °C 1006.3 hPa ENE 3.2 km/h 8 km/h 87% 0 mm 0 W/m2
02:42 13.9 °C 11.8 °C 1006 hPa ENE 4.8 km/h 4.8 km/h 87% 0 mm 0 W/m2
02:48 13.8 °C 11.7 °C 1006.3 hPa East 4.8 km/h 4.8 km/h 87% 0 mm 0 W/m2
02:54 13.7 °C 11.6 °C 1006.3 hPa ENE 3.2 km/h 3.2 km/h 87% 0 mm 0 W/m2
02:59 13.7 °C 11.8 °C 1006.3 hPa ENE 3.2 km/h 3.2 km/h 88% 0 mm 0 W/m2
03:06 13.7 °C 11.8 °C 1006.3 hPa ESE 3.2 km/h 8 km/h 88% 0 mm 0 W/m2
03:12 13.8 °C 11.8 °C 1006.3 hPa East 4.8 km/h 4.8 km/h 88% 0 mm 0 W/m2
03:18 13.8 °C 11.8 °C 1006.3 hPa East 4.8 km/h 4.8 km/h 88% 0 mm 0 W/m2
03:24 13.7 °C 11.8 °C 1006.3 hPa East 4.8 km/h 8 km/h 88% 0 mm 0 W/m2
03:30 13.7 °C 11.8 °C 1006.3 hPa ENE 4.8 km/h 4.8 km/h 88% 0 mm 0 W/m2
03:36 13.6 °C 11.7 °C 1006.3 hPa NE 3.2 km/h 4.8 km/h 88% 0 mm 0 W/m2
03:42 13.6 °C 11.7 °C 1006.3 hPa ENE 3.2 km/h 4.8 km/h 88% 0 mm 0 W/m2
03:48 13.6 °C 11.6 °C 1006 hPa East 3.2 km/h 8 km/h 88% 0 mm 0 W/m2
03:54 13.5 °C 11.6 °C 1006 hPa East 3.2 km/h 3.2 km/h 88% 0 mm 0 W/m2
04:00 13.6 °C 11.6 °C 1006 hPa East 3.2 km/h 9.7 km/h 88% 0 mm 0 W/m2
04:06 13.6 °C 11.6 °C 1006.3 hPa ENE 3.2 km/h 9.7 km/h 88% 0 mm 0 W/m2
04:12 13.5 °C 11.6 °C 1006.3 hPa ENE 3.2 km/h 3.2 km/h 88% 0 mm 0 W/m2
04:18 13.4 °C 11.5 °C 1006.3 hPa East 3.2 km/h 8 km/h 88% 0 mm 0 W/m2
04:24 13.3 °C 11.6 °C 1006.3 hPa East 3.2 km/h 3.2 km/h 89% 0 mm 0 W/m2
04:30 13.3 °C 11.5 °C 1006.3 hPa ESE 1.6 km/h 1.6 km/h 89% 0 mm 0 W/m2
04:36 13.2 °C 11.4 °C 1006.3 hPa ENE 3.2 km/h 3.2 km/h 89% 0 mm 0 W/m2
04:42 13.2 °C 11.4 °C 1006.3 hPa ENE 3.2 km/h 4.8 km/h 89% 0 mm 0 W/m2
04:48 13.2 °C 11.4 °C 1006.3 hPa ENE 3.2 km/h 4.8 km/h 89% 0 mm 0 W/m2
04:54 13.2 °C 11.4 °C 1006.3 hPa East 3.2 km/h 4.8 km/h 89% 0 mm 0 W/m2
05:00 13.2 °C 11.4 °C 1006.3 hPa East 3.2 km/h 3.2 km/h 89% 0 mm 0 W/m2
05:06 13.1 °C 11.3 °C 1006.3 hPa ENE 3.2 km/h 3.2 km/h 89% 0 mm 0 W/m2
05:12 12.9 °C 11.2 °C 1006.3 hPa ENE 1.6 km/h 3.2 km/h 89% 0 mm 0 W/m2
05:18 12.8 °C 11.2 °C 1006.3 hPa East 3.2 km/h 4.8 km/h 90% 0 mm 0 W/m2
05:24 12.9 °C 11.3 °C 1006.3 hPa ENE 3.2 km/h 3.2 km/h 90% 0 mm 0 W/m2
05:30 13.1 °C 11.4 °C 1006.3 hPa East 3.2 km/h 3.2 km/h 90% 0 mm 0 W/m2
05:36 13.1 °C 11.5 °C 1006.3 hPa East 3.2 km/h 4.8 km/h 90% 0 mm 0 W/m2
05:42 13.1 °C 11.4 °C 1006.3 hPa ESE 3.2 km/h 3.2 km/h 90% 0 mm 0 W/m2
05:48 13.1 °C 11.4 °C 1006.7 hPa ENE 3.2 km/h 4.8 km/h 90% 0 mm 0 W/m2
05:54 13.1 °C 11.4 °C 1006.7 hPa East 3.2 km/h 8 km/h 90% 0 mm 0 W/m2
06:00 13 °C 11.4 °C 1006.7 hPa ENE 3.2 km/h 3.2 km/h 90% 0 mm 0 W/m2
06:06 13.1 °C 11.4 °C 1006.7 hPa ENE 3.2 km/h 6.4 km/h 90% 0 mm 5 W/m2
06:12 13.1 °C 11.5 °C 1006.7 hPa ESE 3.2 km/h 3.2 km/h 90% 0 mm 9 W/m2
06:18 13.2 °C 11.6 °C 1006.7 hPa East 3.2 km/h 3.2 km/h 90% 0 mm 11 W/m2
06:24 13.2 °C 11.6 °C 1006.7 hPa ENE 1.6 km/h 6.4 km/h 90% 0 mm 14 W/m2
06:30 13.3 °C 11.7 °C 1006.7 hPa ENE 3.2 km/h 6.4 km/h 90% 0 mm 18 W/m2
06:36 13.3 °C 11.7 °C 1006.7 hPa East 3.2 km/h 6.4 km/h 90% 0 mm 26 W/m2
06:42 13.4 °C 11.8 °C 1006.7 hPa ENE 3.2 km/h 8 km/h 90% 0 mm 28 W/m2
06:48 13.6 °C 11.8 °C 1006.7 hPa East 4.8 km/h 8 km/h 89% 0 mm 49 W/m2
06:54 13.7 °C 11.9 °C 1007 hPa ENE 3.2 km/h 8 km/h 89% 0 mm 93 W/m2
07:00 14.1 °C 12.3 °C 1006.7 hPa East 3.2 km/h 3.2 km/h 89% 0 mm 120 W/m2
07:06 14.3 °C 12.4 °C 1007 hPa East 4.8 km/h 9.7 km/h 88% 0 mm 137 W/m2
07:12 14.6 °C 12.4 °C 1007 hPa East 4.8 km/h 6.4 km/h 87% 0 mm 151 W/m2
07:18 14.9 °C 12.6 °C 1007 hPa ENE 3.2 km/h 6.4 km/h 86% 0 mm 165 W/m2
07:24 15.1 °C 12.6 °C 1007 hPa ESE 4.8 km/h 4.8 km/h 85% 0 mm 178 W/m2
07:30 15.4 °C 12.8 °C 1007 hPa ENE 3.2 km/h 6.4 km/h 84% 0 mm 192 W/m2
07:36 15.6 °C 12.7 °C 1007 hPa East 3.2 km/h 9.7 km/h 83% 0 mm 207 W/m2
07:42 15.8 °C 12.9 °C 1007 hPa ENE 3.2 km/h 6.4 km/h 83% 0 mm 227 W/m2
07:48 16.1 °C 13.1 °C 1007 hPa ENE 4.8 km/h 6.4 km/h 82% 0 mm 244 W/m2
07:54 16.3 °C 13 °C 1007 hPa East 4.8 km/h 4.8 km/h 81% 0 mm 260 W/m2
08:00 16.6 °C 13.3 °C 1007 hPa SE 3.2 km/h 4.8 km/h 81% 0 mm 274 W/m2
08:05 16.9 °C 13.4 °C 1007.3 hPa ENE 3.2 km/h 4.8 km/h 80% 0 mm 288 W/m2
08:12 17.3 °C 13.4 °C 1007.3 hPa East 1.6 km/h 8 km/h 78% 0 mm 313 W/m2
08:18 17.6 °C 13.7 °C 1007.3 hPa SE 3.2 km/h 8 km/h 78% 0 mm 330 W/m2
08:23 17.8 °C 13.7 °C 1007.3 hPa SSE 4.8 km/h 8 km/h 77% 0 mm 308 W/m2
08:30 18 °C 13.9 °C 1007.3 hPa SSE 6.4 km/h 6.4 km/h 77% 0 mm 325 W/m2
08:36 18.2 °C 13.7 °C 1007.3 hPa ESE 6.4 km/h 6.4 km/h 75% 0 mm 341 W/m2
08:42 18.4 °C 13.9 °C 1007.3 hPa East 6.4 km/h 8 km/h 75% 0 mm 390 W/m2
08:48 18.7 °C 14 °C 1007.3 hPa East 6.4 km/h 8 km/h 74% 0 mm 410 W/m2
08:54 18.9 °C 14 °C 1007.3 hPa SE 6.4 km/h 6.4 km/h 73% 0 mm 441 W/m2
09:00 19 °C 14.1 °C 1007 hPa SE 6.4 km/h 12.9 km/h 73% 0 mm 459 W/m2
09:06 19.2 °C 14.2 °C 1007 hPa SSE 8 km/h 17.7 km/h 73% 0 mm 487 W/m2
09:10 19.3 °C 14.3 °C 1007 hPa SSE 8 km/h 8 km/h 73% 0 mm 492 W/m2
09:16 19.5 °C 14.1 °C 1006.7 hPa SSE 8 km/h 11.3 km/h 71% 0 mm 517 W/m2
09:22 19.8 °C 14.2 °C 1006.7 hPa SE 8 km/h 11.3 km/h 70% 0 mm 529 W/m2
09:28 19.9 °C 14.5 °C 1006.7 hPa SE 8 km/h 11.3 km/h 71% 0 mm 536 W/m2
09:34 19.8 °C 14 °C 1007 hPa SE 6.4 km/h 12.9 km/h 69% 0 mm 533 W/m2
09:40 19.9 °C 14.1 °C 1007 hPa East 6.4 km/h 9.7 km/h 69% 0 mm 533 W/m2
09:46 20 °C 14.3 °C 1006.7 hPa SE 6.4 km/h 16.1 km/h 70% 0 mm 555 W/m2
09:52 20.2 °C 14.1 °C 1006.7 hPa SE 8 km/h 12.9 km/h 68% 0 mm 615 W/m2
09:58 20.3 °C 14.2 °C 1006.7 hPa SE 8 km/h 14.5 km/h 68% 0 mm 617 W/m2
10:04 20.3 °C 14.4 °C 1006.7 hPa SE 8 km/h 12.9 km/h 69% 0 mm 647 W/m2
10:10 20.6 °C 14.7 °C 1006.7 hPa ENE 8 km/h 8 km/h 69% 0 mm 661 W/m2
10:16 20.7 °C 14.4 °C 1006.7 hPa SE 8 km/h 19.3 km/h 67% 0 mm 680 W/m2
10:22 21.1 °C 15 °C 1006.7 hPa ESE 8 km/h 8 km/h 68% 0 mm 700 W/m2
10:28 21.1 °C 15 °C 1006.7 hPa SSE 8 km/h 8 km/h 68% 0 mm 715 W/m2
10:34 21 °C 14.4 °C 1006.7 hPa SE 9.7 km/h 11.3 km/h 66% 0 mm 729 W/m2
10:40 21.6 °C 14.4 °C 1006.7 hPa East 6.4 km/h 8 km/h 64% 0 mm 738 W/m2
10:46 21.8 °C 14.7 °C 1006.7 hPa East 6.4 km/h 11.3 km/h 64% 0 mm 758 W/m2
10:52 21.6 °C 14.3 °C 1006.7 hPa ENE 6.4 km/h 6.4 km/h 63% 0 mm 770 W/m2
10:58 21.7 °C 14.3 °C 1006.3 hPa SSE 8 km/h 12.9 km/h 63% 0 mm 784 W/m2
11:04 21.9 °C 14.8 °C 1006.3 hPa NE 8 km/h 16.1 km/h 64% 0 mm 793 W/m2
11:10 22.1 °C 14.5 °C 1006.3 hPa SE 8 km/h 14.5 km/h 62% 0 mm 807 W/m2
11:16 22.3 °C 14.7 °C 1006.3 hPa ESE 8 km/h 14.5 km/h 62% 0 mm 782 W/m2
11:22 22.3 °C 15.1 °C 1006.3 hPa SE 9.7 km/h 14.5 km/h 64% 0 mm 826 W/m2
11:28 22.2 °C 14.8 °C 1006.3 hPa ESE 8 km/h 14.5 km/h 63% 0 mm 824 W/m2
11:34 22.6 °C 14.7 °C 1006.3 hPa NE 8 km/h 8 km/h 61% 0 mm 814 W/m2
11:40 22.8 °C 14.4 °C 1006.3 hPa SE 9.7 km/h 9.7 km/h 59% 0 mm 831 W/m2
11:46 22.9 °C 14.9 °C 1006.3 hPa SE 8 km/h 12.9 km/h 61% 0 mm 800 W/m2
11:52 23.3 °C 15.3 °C 1006.3 hPa SSE 8 km/h 11.3 km/h 61% 0 mm 838 W/m2
11:58 23.3 °C 14.6 °C 1006.3 hPa ESE 8 km/h 12.9 km/h 58% 0 mm 865 W/m2
12:04 23.7 °C 15.4 °C 1006 hPa SSE 8 km/h 11.3 km/h 60% 0 mm 842 W/m2
12:10 23.8 °C 16.1 °C 1006 hPa SSE 6.4 km/h 6.4 km/h 62% 0 mm 884 W/m2
12:16 23.8 °C 15 °C 1006 hPa East 6.4 km/h 8 km/h 58% 0 mm 796 W/m2
12:22 23.9 °C 15.9 °C 1006 hPa East 6.4 km/h 9.7 km/h 61% 0 mm 847 W/m2
12:28 24.4 °C 15.3 °C 1006 hPa ESE 6.4 km/h 9.7 km/h 57% 0 mm 877 W/m2
12:34 24.4 °C 15.3 °C 1005.6 hPa ESE 6.4 km/h 11.3 km/h 57% 0 mm 895 W/m2
12:40 24.4 °C 15.1 °C 1005.6 hPa East 8 km/h 11.3 km/h 56% 0 mm 809 W/m2
12:45 24.4 °C 15.7 °C 1005.6 hPa South 6.4 km/h 11.3 km/h 58% 0 mm 766 W/m2
12:52 24.4 °C 15.4 °C 1005.6 hPa SSE 6.4 km/h 6.4 km/h 57% 0 mm 789 W/m2
12:58 24.5 °C 15.2 °C 1005.3 hPa East 8 km/h 11.3 km/h 56% 0 mm 772 W/m2
13:04 24.7 °C 16.2 °C 1005 hPa SSE 9.7 km/h 11.3 km/h 59% 0 mm 812 W/m2
13:09 24.9 °C 15.8 °C 1005 hPa SE 8 km/h 8 km/h 57% 0 mm 664 W/m2
13:16 24.8 °C 15.4 °C 1005 hPa SE 8 km/h 8 km/h 56% 0 mm 744 W/m2
13:22 24.9 °C 15.3 °C 1005 hPa East 6.4 km/h 11.3 km/h 55% 0 mm 677 W/m2
13:28 24.9 °C 15.8 °C 1005 hPa ENE 8 km/h 12.9 km/h 57% 0 mm 844 W/m2
13:34 25.4 °C 15.4 °C 1004.6 hPa SE 6.4 km/h 14.5 km/h 54% 0 mm 900 W/m2
13:40 25.4 °C 16.6 °C 1004.6 hPa SSE 9.7 km/h 17.7 km/h 58% 0 mm 809 W/m2
13:46 25.7 °C 15.7 °C 1004.3 hPa SSE 9.7 km/h 17.7 km/h 54% 0 mm 946 W/m2
13:52 25.8 °C 15.2 °C 1004.3 hPa SSE 9.7 km/h 12.9 km/h 52% 0 mm 770 W/m2
13:58 25.6 °C 15.3 °C 1004.6 hPa SE 9.7 km/h 14.5 km/h 53% 0 mm 814 W/m2
14:04 25.7 °C 15.7 °C 1004.3 hPa SSE 9.7 km/h 11.3 km/h 54% 0 mm 668 W/m2
14:10 25.7 °C 15.7 °C 1003.9 hPa SE 9.7 km/h 9.7 km/h 54% 0 mm 612 W/m2
14:16 26.2 °C 15.8 °C 1003.9 hPa SE 9.7 km/h 9.7 km/h 53% 0 mm 788 W/m2
14:22 26.1 °C 14.9 °C 1003.9 hPa SSE 6.4 km/h 8 km/h 50% 0 mm 557 W/m2
14:28 26.2 °C 15.9 °C 1003.6 hPa SE 8 km/h 9.7 km/h 53% 0 mm 898 W/m2
14:40 26.1 °C 14.8 °C 1003.3 hPa East 9.7 km/h 9.7 km/h 50% 0 mm 424 W/m2
14:46 26.3 °C 15.4 °C 1003.3 hPa SE 9.7 km/h 17.7 km/h 51% 0 mm 715 W/m2
14:52 26.6 °C 14.9 °C 1003.3 hPa SSE 8 km/h 8 km/h 49% 0 mm 788 W/m2
14:58 26.6 °C 15 °C 1003.3 hPa SE 9.7 km/h 12.9 km/h 49% 0 mm 749 W/m2
15:04 26.8 °C 15.2 °C 1003.3 hPa SSE 9.7 km/h 11.3 km/h 49% 0 mm 568 W/m2
15:10 26.8 °C 15.8 °C 1003.3 hPa ESE 8 km/h 8 km/h 51% 0 mm 485 W/m2
15:16 26.8 °C 15.5 °C 1002.9 hPa SE 8 km/h 19.3 km/h 50% 0 mm 587 W/m2
15:22 26.6 °C 14.9 °C 1002.9 hPa SSE 9.7 km/h 9.7 km/h 49% 0 mm 299 W/m2
15:28 26.5 °C 14.9 °C 1002.9 hPa SSE 8 km/h 9.7 km/h 49% 0 mm 376 W/m2
15:36 26.5 °C 14.6 °C 1002.9 hPa ESE 9.7 km/h 12.9 km/h 48% 0 mm 492 W/m2
15:42 26.7 °C 15.7 °C 1002.9 hPa SSE 9.7 km/h 14.5 km/h 51% 0 mm 571 W/m2
15:48 26.9 °C 15.6 °C 1002.6 hPa SE 9.7 km/h 17.7 km/h 50% 0 mm 603 W/m2
15:54 27.2 °C 15.6 °C 1002.3 hPa SSE 9.7 km/h 11.3 km/h 49% 0 mm 742 W/m2
16:00 27.3 °C 15.3 °C 1002.3 hPa SSE 11.3 km/h 11.3 km/h 48% 0 mm 701 W/m2
16:06 27.4 °C 14.8 °C 1002.3 hPa SE 12.9 km/h 14.5 km/h 46% 0 mm 682 W/m2
16:12 27.5 °C 15.2 °C 1002.3 hPa SSE 12.9 km/h 14.5 km/h 47% 0 mm 547 W/m2
16:18 26.9 °C 15 °C 1002.3 hPa ESE 14.5 km/h 22.5 km/h 48% 0 mm 304 W/m2
16:24 27.1 °C 16.1 °C 1002.3 hPa SE 12.9 km/h 20.9 km/h 51% 0 mm 591 W/m2
16:30 27.6 °C 15.3 °C 1002.3 hPa SE 9.7 km/h 9.7 km/h 47% 0 mm 538 W/m2
16:36 27.3 °C 14.7 °C 1002.3 hPa South 11.3 km/h 22.5 km/h 46% 0 mm 457 W/m2
16:42 27.3 °C 14.3 °C 1001.9 hPa SSW 11.3 km/h 11.3 km/h 45% 0 mm 367 W/m2
16:48 27.1 °C 14.8 °C 1001.9 hPa SSE 11.3 km/h 12.9 km/h 47% 0 mm 260 W/m2
16:54 27 °C 14.4 °C 1001.9 hPa ESE 11.3 km/h 22.5 km/h 46% 0 mm 350 W/m2
17:00 27.3 °C 14.7 °C 1001.9 hPa South 9.7 km/h 9.7 km/h 46% 0 mm 555 W/m2
17:06 27.5 °C 14.5 °C 1001.9 hPa ESE 12.9 km/h 12.9 km/h 45% 0 mm 406 W/m2
17:12 27.4 °C 14.4 °C 1001.9 hPa South 11.3 km/h 11.3 km/h 45% 0 mm 362 W/m2
17:18 27.4 °C 14.4 °C 1001.9 hPa South 9.7 km/h 11.3 km/h 45% 0 mm 301 W/m2
17:24 27.1 °C 14.8 °C 1001.9 hPa SE 11.3 km/h 16.1 km/h 47% 0 mm 176 W/m2
17:30 27 °C 14.1 °C 1001.9 hPa South 11.3 km/h 16.1 km/h 45% 0 mm 341 W/m2
17:36 27.3 °C 14 °C 1001.9 hPa South 11.3 km/h 16.1 km/h 44% 0 mm 250 W/m2
17:42 27.2 °C 13.2 °C 1001.9 hPa SSE 11.3 km/h 24.1 km/h 42% 0 mm 178 W/m2
17:48 26.9 °C 12.9 °C 1001.9 hPa SE 9.7 km/h 24.1 km/h 42% 0 mm 128 W/m2
17:54 26.7 °C 13.1 °C 1001.6 hPa South 9.7 km/h 9.7 km/h 43% 0 mm 141 W/m2
18:00 26.6 °C 13.7 °C 1001.6 hPa South 8 km/h 14.5 km/h 45% 0 mm 151 W/m2
18:06 26.6 °C 14 °C 1001.6 hPa SSE 9.7 km/h 14.5 km/h 46% 0 mm 128 W/m2
18:12 26.5 °C 13.6 °C 1001.6 hPa ESE 9.7 km/h 11.3 km/h 45% 0 mm 98 W/m2
18:18 26.3 °C 13.7 °C 1001.6 hPa ESE 9.7 km/h 17.7 km/h 46% 0 mm 81 W/m2
18:24 26.2 °C 13.9 °C 1001.6 hPa SSE 8 km/h 14.5 km/h 47% 0 mm 70 W/m2
18:30 25.9 °C 14.1 °C 1001.2 hPa SSE 9.7 km/h 9.7 km/h 48% 0 mm 63 W/m2
18:36 26 °C 14.1 °C 1001.2 hPa SE 9.7 km/h 12.9 km/h 48% 0 mm 69 W/m2
18:42 25.9 °C 14.3 °C 1001.6 hPa SE 9.7 km/h 17.7 km/h 49% 0 mm 62 W/m2
18:48 25.8 °C 14.6 °C 1001.6 hPa SE 8 km/h 17.7 km/h 50% 0 mm 49 W/m2
18:54 25.7 °C 14.8 °C 1001.2 hPa East 4.8 km/h 6.4 km/h 51% 0 mm 49 W/m2
19:00 25.6 °C 14.9 °C 1001.6 hPa SE 4.8 km/h 4.8 km/h 52% 0 mm 35 W/m2
19:05 25.4 °C 14.8 °C 1001.6 hPa SSE 4.8 km/h 11.3 km/h 52% 0 mm 25 W/m2
19:12 25.3 °C 15.1 °C 1001.6 hPa SE 6.4 km/h 6.4 km/h 53% 0 mm 26 W/m2
19:18 25.3 °C 15 °C 1001.9 hPa SSE 6.4 km/h 11.3 km/h 53% 0 mm 30 W/m2
19:24 25.3 °C 15 °C 1001.9 hPa SSE 6.4 km/h 9.7 km/h 53% 0 mm 28 W/m2
19:30 25.3 °C 15 °C 1001.9 hPa SSE 6.4 km/h 6.4 km/h 53% 0 mm 19 W/m2
19:36 25 °C 15.1 °C 1001.9 hPa SSE 4.8 km/h 6.4 km/h 54% 0 mm 14 W/m2
19:42 24.8 °C 14.8 °C 1002.3 hPa South 4.8 km/h 6.4 km/h 54% 0 mm 5 W/m2
19:48 24.8 °C 14.6 °C 1002.3 hPa SE 4.8 km/h 8 km/h 53% 0 mm 0 W/m2
19:54 24.7 °C 15 °C 1002.3 hPa SE 3.2 km/h 4.8 km/h 55% 0 mm 0 W/m2
20:00 24.5 °C 14.9 °C 1002.3 hPa SSE 3.2 km/h 6.4 km/h 55% 0 mm 0 W/m2
20:06 24.3 °C 15 °C 1002.3 hPa SSE 3.2 km/h 6.4 km/h 56% 0 mm 0 W/m2
20:12 24.2 °C 15.1 °C 1002.6 hPa SE 3.2 km/h 4.8 km/h 57% 0 mm 0 W/m2
20:18 24.3 °C 14.7 °C 1002.6 hPa SSE 4.8 km/h 4.8 km/h 55% 0 mm 0 W/m2
20:24 24.5 °C 14.3 °C 1002.6 hPa South 8 km/h 8 km/h 53% 0 mm 0 W/m2
20:30 24.7 °C 14.2 °C 1002.6 hPa SE 9.7 km/h 9.7 km/h 52% 0 mm 0 W/m2
20:36 24.8 °C 14.3 °C 1002.6 hPa SSE 11.3 km/h 14.5 km/h 52% 0 mm 0 W/m2
20:42 24.7 °C 14.2 °C 1002.9 hPa South 11.3 km/h 14.5 km/h 52% 0 mm 0 W/m2
20:48 24.8 °C 14.3 °C 1002.9 hPa SE 12.9 km/h 14.5 km/h 52% 0 mm 0 W/m2
20:54 24.6 °C 14.1 °C 1003.3 hPa South 11.3 km/h 12.9 km/h 52% 0 mm 0 W/m2
21:00 24.5 °C 14.3 °C 1002.9 hPa South 9.7 km/h 9.7 km/h 53% 0 mm 0 W/m2
21:06 24.4 °C 14.5 °C 1003.3 hPa South 8 km/h 12.9 km/h 54% 0 mm 0 W/m2
21:12 24.4 °C 14.5 °C 1003.3 hPa South 11.3 km/h 11.3 km/h 54% 0 mm 0 W/m2
21:18 24.3 °C 14.4 °C 1003.3 hPa SSE 9.7 km/h 11.3 km/h 54% 0 mm 0 W/m2
21:24 24.3 °C 14.7 °C 1003.3 hPa SSE 9.7 km/h 11.3 km/h 55% 0 mm 0 W/m2
21:30 24.2 °C 14.6 °C 1003.3 hPa South 8 km/h 8 km/h 55% 0 mm 0 W/m2
21:36 24.2 °C 14.6 °C 1003.3 hPa South 8 km/h 11.3 km/h 55% 0 mm 0 W/m2
21:42 24.1 °C 14.5 °C 1003.3 hPa SE 8 km/h 11.3 km/h 55% 0 mm 0 W/m2
21:48 24 °C 14.7 °C 1003.3 hPa South 9.7 km/h 12.9 km/h 56% 0 mm 0 W/m2
21:54 23.9 °C 14.6 °C 1003.3 hPa South 9.7 km/h 12.9 km/h 56% 0 mm 0 W/m2
22:00 23.9 °C 14.6 °C 1003.3 hPa SSE 8 km/h 8 km/h 56% 0 mm 0 W/m2
22:06 23.9 °C 14.8 °C 1003.3 hPa SSE 6.4 km/h 9.7 km/h 57% 0 mm 0 W/m2
22:12 23.8 °C 15.1 °C 1003.3 hPa SW 6.4 km/h 11.3 km/h 58% 0 mm 0 W/m2
22:18 23.9 °C 14.8 °C 1003.6 hPa SSE 6.4 km/h 11.3 km/h 57% 0 mm 0 W/m2
22:24 23.8 °C 15 °C 1003.6 hPa South 4.8 km/h 6.4 km/h 58% 0 mm 0 W/m2
22:30 23.8 °C 15 °C 1003.6 hPa South 6.4 km/h 11.3 km/h 58% 0 mm 0 W/m2
22:36 23.7 °C 15.2 °C 1003.9 hPa SSW 4.8 km/h 11.3 km/h 59% 0 mm 0 W/m2
22:42 23.4 °C 15.2 °C 1003.9 hPa SE 3.2 km/h 4.8 km/h 60% 0 mm 0 W/m2
22:48 23.2 °C 15.7 °C 1004.3 hPa SSW 1.6 km/h 4.8 km/h 63% 0 mm 0 W/m2
22:54 22.9 °C 15.8 °C 1004.3 hPa South 3.2 km/h 11.3 km/h 64% 0 mm 0 W/m2
23:00 22.7 °C 15.7 °C 1004.3 hPa SSW 3.2 km/h 3.2 km/h 65% 0 mm 0 W/m2
23:06 22.4 °C 16.2 °C 1004.3 hPa SSW 1.6 km/h 3.2 km/h 68% 0 mm 0 W/m2
23:12 22 °C 16.1 °C 1004.3 hPa SE 1.6 km/h 1.6 km/h 69% 0 mm 0 W/m2
23:18 21.9 °C 16 °C 1005 hPa SSW 1.6 km/h 3.2 km/h 69% 0 mm 0 W/m2
23:24 21.9 °C 16.2 °C 1005 hPa South 1.6 km/h 6.4 km/h 70% 0 mm 0 W/m2
23:30 21.7 °C 16.2 °C 1005 hPa SSE 3.2 km/h 4.8 km/h 71% 5.33 mm 0 W/m2
23:36 21.3 °C 16.3 °C 1005 hPa South 4.8 km/h 9.7 km/h 73% 2.54 mm 0 W/m2
23:42 21.1 °C 16.4 °C 1004.6 hPa SSW 3.2 km/h 3.2 km/h 75% 1.78 mm 0 W/m2
23:48 20.6 °C 16.8 °C 1005 hPa SSW 1.6 km/h 3.2 km/h 79% 1.27 mm 0 W/m2
23:54 20.2 °C 16.8 °C 1005 hPa Calm   1.6 km/h 81% 1.27 mm 0 W/m2
Country Meadow, Clay, NY, USA
Compliments of Weather Underground - 2 mb